createdAt,value
2022-11-15T00:00:11.740Z,6.30
2022-11-15T00:02:57.845Z,3.80
2022-11-15T00:05:44.756Z,3.57
2022-11-15T00:08:33.238Z,3.70
2022-11-15T00:11:19.520Z,5.17
2022-11-15T00:14:06.208Z,4.93
2022-11-15T00:16:52.769Z,2.87
2022-11-15T00:19:39.141Z,4.27
2022-11-15T00:22:25.751Z,3.33
2022-11-15T00:25:13.575Z,2.90
2022-11-15T00:28:00.523Z,5.13
2022-11-15T00:30:46.719Z,4.20
2022-11-15T00:33:33.645Z,2.50
2022-11-15T00:36:20.449Z,2.67
2022-11-15T00:39:07.393Z,4.03
2022-11-15T00:41:55.096Z,4.67
2022-11-15T00:44:41.525Z,3.90
2022-11-15T00:47:28.122Z,4.30
2022-11-15T00:50:15.546Z,5.30
2022-11-15T00:53:03.233Z,6.67
2022-11-15T00:55:49.715Z,4.33
2022-11-15T00:58:37.633Z,5.93
2022-11-15T01:01:24.263Z,3.37
2022-11-15T01:04:10.931Z,3.43
2022-11-15T01:06:57.573Z,4.13
2022-11-15T01:09:44.175Z,4.70
2022-11-15T01:12:30.837Z,4.70
2022-11-15T01:15:18.960Z,3.13
2022-11-15T01:18:05.525Z,3.50
2022-11-15T01:20:51.858Z,3.57
2022-11-15T01:23:38.829Z,3.20
2022-11-15T01:26:26.319Z,3.67
2022-11-15T01:29:12.586Z,4.37
2022-11-15T01:32:00.381Z,5.20
2022-11-15T01:34:47.194Z,5.60
2022-11-15T01:37:33.692Z,4.50
2022-11-15T01:40:20.187Z,3.70
2022-11-15T01:43:24.399Z,4.20
2022-11-15T01:46:25.282Z,5.43
2022-11-15T01:49:17.771Z,2.93
2022-11-15T01:52:08.957Z,2.60
2022-11-15T01:55:00.092Z,3.17
2022-11-15T01:57:50.614Z,3.87
2022-11-15T02:00:37.546Z,4.00
2022-11-15T02:03:29.277Z,2.87
2022-11-15T02:06:17.513Z,2.53
2022-11-15T02:09:04.888Z,3.67
2022-11-15T02:11:52.771Z,3.10
2022-11-15T02:14:42.031Z,4.90
2022-11-15T02:17:42.427Z,3.83
2022-11-15T02:20:44.354Z,3.20
2022-11-15T02:24:08.562Z,4.23
2022-11-15T02:27:27.682Z,4.60
2022-11-15T02:30:35.915Z,6.50
2022-11-15T02:33:34.160Z,2.80
2022-11-15T02:36:29.441Z,3.50
2022-11-15T02:39:24.037Z,4.17
2022-11-15T02:42:30.404Z,2.77
2022-11-15T02:45:25.216Z,3.97
2022-11-15T02:48:14.050Z,4.03
2022-11-15T02:51:02.374Z,2.67
2022-11-15T02:53:48.601Z,5.67
2022-11-15T02:56:35.430Z,5.33
2022-11-15T02:59:45.026Z,3.27
2022-11-15T03:02:44.149Z,2.40
2022-11-15T03:05:39.299Z,4.07
2022-11-15T03:08:34.922Z,4.03
2022-11-15T03:11:24.001Z,3.50
2022-11-15T03:14:19.693Z,3.50
2022-11-15T03:17:14.810Z,3.37
2022-11-15T03:20:05.020Z,5.97
2022-11-15T03:22:53.920Z,2.70
2022-11-15T03:25:45.505Z,3.13
2022-11-15T03:28:37.525Z,2.83
2022-11-15T03:31:49.755Z,3.13
2022-11-15T03:34:41.307Z,2.57
2022-11-15T03:37:34.928Z,3.43
2022-11-15T03:40:27.632Z,3.33
2022-11-15T03:43:22.706Z,7.57
2022-11-15T03:46:15.719Z,3.10
2022-11-15T03:49:08.190Z,3.73
2022-11-15T03:51:54.641Z,3.10
2022-11-15T03:54:50.281Z,2.87
2022-11-15T03:57:38.043Z,2.83
2022-11-15T04:00:25.011Z,3.37
2022-11-15T04:03:11.403Z,3.60
2022-11-15T04:05:57.996Z,4.30
2022-11-15T04:08:44.681Z,3.27
2022-11-15T04:11:31.392Z,2.40
2022-11-15T04:14:19.099Z,3.47
2022-11-15T04:17:05.681Z,3.43
2022-11-15T04:20:15.322Z,3.10
2022-11-15T04:23:22.044Z,4.27
2022-11-15T04:26:11.577Z,3.30
2022-11-15T04:29:15.676Z,3.57
2022-11-15T04:32:03.525Z,3.37
2022-11-15T04:34:49.983Z,4.43
2022-11-15T04:37:35.592Z,5.13
2022-11-15T04:40:21.780Z,3.00
2022-11-15T04:43:08.411Z,4.20
2022-11-15T04:45:55.170Z,2.70
2022-11-15T04:48:43.083Z,2.77
2022-11-15T04:51:29.681Z,2.50
2022-11-15T04:54:16.909Z,2.77
2022-11-15T04:57:03.399Z,3.43
2022-11-15T04:59:49.801Z,2.00
2022-11-15T05:02:54.112Z,3.93
2022-11-15T05:05:42.088Z,2.77
2022-11-15T05:08:28.674Z,3.10
2022-11-15T05:11:15.181Z,4.13
2022-11-15T05:14:01.689Z,2.97
2022-11-15T05:16:48.274Z,2.50
2022-11-15T05:19:34.951Z,3.20
2022-11-15T05:22:24.196Z,4.77
2022-11-15T05:25:10.750Z,3.00
2022-11-15T05:27:57.131Z,3.63
2022-11-15T05:30:43.722Z,2.77
2022-11-15T05:33:30.752Z,2.37
2022-11-15T05:36:21.488Z,5.83
2022-11-15T05:39:10.014Z,2.40
2022-11-15T05:42:01.303Z,2.43
2022-11-15T05:44:51.270Z,2.40
2022-11-15T05:47:39.833Z,3.97
2022-11-15T05:50:26.674Z,4.47
2022-11-15T05:53:13.862Z,3.83
2022-11-15T05:56:02.151Z,4.03
2022-11-15T05:58:48.906Z,4.07
2022-11-15T06:01:35.571Z,3.27
2022-11-15T06:04:21.935Z,3.00
2022-11-15T06:07:08.506Z,3.67
2022-11-15T06:09:55.066Z,4.30
2022-11-15T06:12:43.052Z,2.70
2022-11-15T06:15:29.548Z,4.50
2022-11-15T06:18:16.069Z,3.90
2022-11-15T06:21:02.736Z,3.47
2022-11-15T06:23:49.221Z,4.40
2022-11-15T06:26:35.784Z,3.93
2022-11-15T06:29:23.612Z,3.57
2022-11-15T06:32:10.441Z,4.63
2022-11-15T06:34:56.888Z,3.20
2022-11-15T06:37:43.617Z,3.50
2022-11-15T06:40:30.251Z,3.43
2022-11-15T06:43:16.556Z,3.17
2022-11-15T06:46:06.589Z,4.33
2022-11-15T06:48:53.270Z,3.57
2022-11-15T06:51:39.895Z,2.97
2022-11-15T06:54:26.348Z,3.10
2022-11-15T06:57:13.287Z,4.43
2022-11-15T06:59:59.903Z,3.03
2022-11-15T07:02:48.536Z,4.40
2022-11-15T07:05:35.627Z,2.70
2022-11-15T07:08:22.095Z,3.07
2022-11-15T07:11:09.929Z,3.50
2022-11-15T07:13:56.237Z,4.40
2022-11-15T07:16:42.891Z,3.80
2022-11-15T07:19:31.167Z,3.43
2022-11-15T07:22:17.577Z,3.67
2022-11-15T07:25:04.323Z,3.57
2022-11-15T07:27:57.254Z,4.87
2022-11-15T07:30:45.470Z,3.17
2022-11-15T07:33:32.299Z,3.13
2022-11-15T07:36:20.588Z,4.40
2022-11-15T07:39:07.211Z,4.40
2022-11-15T07:42:14.331Z,2.47
2022-11-15T07:45:00.796Z,3.67
2022-11-15T07:47:52.573Z,2.93
2022-11-15T07:50:44.065Z,3.33
2022-11-15T07:53:32.407Z,2.93
2022-11-15T07:56:18.883Z,7.00
2022-11-15T07:59:05.537Z,3.27
2022-11-15T08:01:52.129Z,3.83
2022-11-15T08:04:38.926Z,5.03
2022-11-15T08:07:25.548Z,8.10
2022-11-15T08:10:13.396Z,5.77
2022-11-15T08:13:01.681Z,4.77
2022-11-15T08:15:51.171Z,4.53
2022-11-15T08:18:41.063Z,5.63
2022-11-15T08:21:27.602Z,3.87
2022-11-15T08:24:14.259Z,4.77
2022-11-15T08:27:02.300Z,5.63
2022-11-15T08:29:51.806Z,4.13
2022-11-15T08:32:39.663Z,4.60
2022-11-15T08:35:29.216Z,3.33
2022-11-15T08:38:16.004Z,2.50
2022-11-15T08:41:05.047Z,3.90
2022-11-15T08:43:52.794Z,3.27
2022-11-15T08:46:39.409Z,6.87
2022-11-15T08:49:26.010Z,5.30
2022-11-15T08:52:12.761Z,8.17
2022-11-15T08:55:03.022Z,5.00
2022-11-15T08:57:49.588Z,12.37
2022-11-15T09:00:37.562Z,11.40
2022-11-15T09:03:23.882Z,11.43
2022-11-15T09:06:10.457Z,6.37
2022-11-15T09:08:57.102Z,10.87
2022-11-15T09:11:43.696Z,10.60
2022-11-15T09:14:30.289Z,7.40
2022-11-15T09:17:24.217Z,7.93
2022-11-15T09:20:12.064Z,5.50
2022-11-15T09:23:01.863Z,9.97
2022-11-15T09:25:48.692Z,8.87
2022-11-15T09:28:36.194Z,5.20
2022-11-15T09:31:23.179Z,9.63
2022-11-15T09:34:11.149Z,7.20
2022-11-15T09:36:57.634Z,9.60
2022-11-15T09:39:44.353Z,7.63
2022-11-15T09:42:51.885Z,12.73
2022-11-15T09:45:50.692Z,13.20
2022-11-15T09:48:54.753Z,7.70
2022-11-15T09:51:34.027Z,9.67
2022-11-15T09:56:57.701Z,16.10
2022-11-15T09:59:43.067Z,7.63
2022-11-15T10:02:35.971Z,11.47
2022-11-15T10:05:04.930Z,4.70
2022-11-15T10:07:42.585Z,3.60
2022-11-15T10:10:17.069Z,7.27
2022-11-15T10:12:49.848Z,3.93
2022-11-15T10:15:23.491Z,4.43
2022-11-15T10:18:10.698Z,4.40
2022-11-15T10:20:48.863Z,3.83
2022-11-15T10:23:20.719Z,5.00
2022-11-15T10:25:48.685Z,6.37
2022-11-15T10:28:18.704Z,3.37
2022-11-15T10:30:48.981Z,3.53
2022-11-15T10:33:32.199Z,5.20
2022-11-15T10:36:20.098Z,4.07
2022-11-15T10:38:58.379Z,2.40
2022-11-15T10:41:36.529Z,2.70
2022-11-15T10:44:25.227Z,3.90
2022-11-15T10:47:23.375Z,2.87
2022-11-15T10:50:00.400Z,3.17
2022-11-15T10:52:30.433Z,3.33
2022-11-15T10:55:05.059Z,3.77
2022-11-15T10:57:35.810Z,4.37
2022-11-15T11:00:07.735Z,3.27
2022-11-15T11:02:38.341Z,3.57
2022-11-15T11:05:09.164Z,5.70
2022-11-15T11:07:37.901Z,5.57
2022-11-15T11:10:49.723Z,8.47
2022-11-15T11:13:23.906Z,8.27
2022-11-15T11:15:58.405Z,10.00
2022-11-15T11:18:32.112Z,9.20
2022-11-15T11:21:05.034Z,9.70
2022-11-15T11:23:46.309Z,9.53
2022-11-15T11:26:37.138Z,9.97
2022-11-15T11:29:16.509Z,10.30
2022-11-15T11:31:51.690Z,7.10
2022-11-15T11:34:33.278Z,8.37
2022-11-15T11:37:13.423Z,5.33
2022-11-15T11:39:50.950Z,3.60
2022-11-15T11:42:31.084Z,5.37
2022-11-15T11:45:12.592Z,2.93
2022-11-15T11:47:42.437Z,5.33
2022-11-15T11:50:16.152Z,4.80
2022-11-15T11:52:50.548Z,3.60
2022-11-15T11:55:22.233Z,3.27
2022-11-15T11:57:58.951Z,4.07
2022-11-15T12:00:29.444Z,9.43
2022-11-15T12:03:17.878Z,4.03
2022-11-15T12:05:48.896Z,3.47
2022-11-15T12:08:35.444Z,5.80
2022-11-15T12:11:10.869Z,5.00
2022-11-15T12:13:40.799Z,6.77
2022-11-15T12:20:23.872Z,9.93
2022-11-15T12:22:56.415Z,10.27
2022-11-15T12:25:30.262Z,22.77
2022-11-15T12:28:02.043Z,11.60
2022-11-15T12:30:46.014Z,14.83
2022-11-15T12:33:33.050Z,15.47
2022-11-15T12:36:02.734Z,13.20
2022-11-15T12:38:56.381Z,16.20
2022-11-15T12:41:25.752Z,16.20
2022-11-15T12:43:57.216Z,21.07
2022-11-15T12:47:01.206Z,14.17
2022-11-15T12:49:47.416Z,13.97
2022-11-15T12:52:15.901Z,12.63
2022-11-15T12:54:58.582Z,12.60
2022-11-15T12:57:32.066Z,11.07
2022-11-15T13:00:02.896Z,9.03
2022-11-15T13:02:34.916Z,8.57
2022-11-15T13:05:57.870Z,11.73
2022-11-15T13:08:51.826Z,14.77
2022-11-15T13:11:50.045Z,13.93
2022-11-15T13:14:41.233Z,13.30
2022-11-15T13:17:41.674Z,12.20
2022-11-15T13:20:29.047Z,7.57
2022-11-15T13:23:04.139Z,8.97
2022-11-15T13:26:08.102Z,12.20
2022-11-15T13:28:39.410Z,8.23
2022-11-15T13:31:25.230Z,6.30
2022-11-15T13:33:54.381Z,7.63
2022-11-15T13:36:27.004Z,7.37
2022-11-15T13:38:59.381Z,8.87
2022-11-15T13:41:29.267Z,7.17
2022-11-15T13:43:58.652Z,5.47
2022-11-15T13:46:28.132Z,3.80
2022-11-15T13:48:59.142Z,3.93
2022-11-15T13:51:37.380Z,3.67
2022-11-15T13:54:15.767Z,4.67
2022-11-15T13:56:46.502Z,4.83
2022-11-15T13:59:23.096Z,4.40
2022-11-15T14:01:52.700Z,4.00
2022-11-15T14:04:23.568Z,5.43
2022-11-15T14:06:55.267Z,5.27
2022-11-15T14:09:34.855Z,7.43
2022-11-15T14:12:22.500Z,4.27
2022-11-15T14:14:50.686Z,2.90
2022-11-15T14:17:24.426Z,4.57
2022-11-15T14:19:53.111Z,5.93
2022-11-15T14:22:26.846Z,7.50
2022-11-15T14:25:16.752Z,6.03
2022-11-15T14:27:45.782Z,4.43
2022-11-15T14:30:17.655Z,5.57
2022-11-15T14:32:48.317Z,6.43
2022-11-15T14:35:18.334Z,5.50
2022-11-15T14:37:47.759Z,7.50
2022-11-15T14:40:18.121Z,6.63
2022-11-15T14:42:48.223Z,6.53
2022-11-15T14:45:18.139Z,5.90
2022-11-15T14:47:46.650Z,3.87
2022-11-15T14:50:15.714Z,5.30
2022-11-15T14:52:44.216Z,7.10
2022-11-15T14:55:20.188Z,4.63
2022-11-15T14:57:48.499Z,5.77
2022-11-15T15:00:17.306Z,3.67
2022-11-15T15:02:46.533Z,8.57
2022-11-15T15:05:17.402Z,6.17
2022-11-15T15:07:45.586Z,5.00
2022-11-15T15:13:04.169Z,5.90
2022-11-15T15:15:35.232Z,5.07
2022-11-15T15:18:03.452Z,8.10
2022-11-15T15:20:31.561Z,7.83
2022-11-15T15:22:59.900Z,4.63
2022-11-15T15:25:33.386Z,5.63
2022-11-15T15:28:01.666Z,5.53
2022-11-15T15:30:31.365Z,4.87
2022-11-15T15:32:59.538Z,5.53
2022-11-15T15:35:32.045Z,6.43
2022-11-15T15:38:00.577Z,4.60
2022-11-15T15:40:31.441Z,4.90
2022-11-15T15:42:59.773Z,4.00
2022-11-15T15:45:28.940Z,4.33
2022-11-15T15:47:57.250Z,4.17
2022-11-15T15:50:27.860Z,4.27
2022-11-15T15:52:57.978Z,7.73
2022-11-15T15:55:26.458Z,4.43
2022-11-15T15:57:55.884Z,5.13
2022-11-15T16:00:25.704Z,6.83
2022-11-15T16:02:54.100Z,4.03
2022-11-15T16:05:22.554Z,4.77
2022-11-15T16:07:51.011Z,4.23
2022-11-15T16:10:23.123Z,4.47
2022-11-15T16:12:51.860Z,5.30
2022-11-15T16:15:22.345Z,5.10
2022-11-15T16:17:53.040Z,4.97
2022-11-15T16:20:28.452Z,4.03
2022-11-15T16:22:56.323Z,5.97
2022-11-15T16:25:24.494Z,6.13
2022-11-15T16:27:52.383Z,5.33
2022-11-15T16:30:24.476Z,7.47
2022-11-15T16:32:52.462Z,6.50
2022-11-15T16:35:20.927Z,6.10
2022-11-15T16:37:50.077Z,7.80
2022-11-15T16:40:26.768Z,4.63
2022-11-15T16:42:56.237Z,5.30
2022-11-15T16:45:25.715Z,5.57
2022-11-15T16:47:54.724Z,6.60
2022-11-15T16:50:25.101Z,4.43
2022-11-15T16:52:54.122Z,7.10
2022-11-15T16:55:22.915Z,7.73
2022-11-15T16:57:51.922Z,6.27
2022-11-15T17:00:21.412Z,6.07
2022-11-15T17:02:51.969Z,12.90
2022-11-15T17:05:21.572Z,13.43
2022-11-15T17:07:52.238Z,51.50
2022-11-15T17:10:20.085Z,15.37
2022-11-15T17:13:06.367Z,27.93
2022-11-15T17:15:34.339Z,6.97
2022-11-15T17:18:03.823Z,21.83
2022-11-15T17:20:31.802Z,23.23
2022-11-15T17:22:59.748Z,32.47
2022-11-15T17:25:27.661Z,24.70
2022-11-15T17:27:57.045Z,29.73
2022-11-15T17:30:24.942Z,29.43
2022-11-15T17:32:52.807Z,9.20
2022-11-15T17:35:22.069Z,14.27
2022-11-15T17:37:49.954Z,29.73
2022-11-15T17:40:18.016Z,12.10
2022-11-15T17:42:45.846Z,6.17
2022-11-15T17:45:14.018Z,8.53
2022-11-15T17:47:41.876Z,7.53
2022-11-15T17:50:10.699Z,8.67
2022-11-15T17:52:39.949Z,10.30
2022-11-15T17:55:08.374Z,7.53
2022-11-15T17:57:36.256Z,7.07
2022-11-15T18:00:06.168Z,8.27
2022-11-15T18:02:34.003Z,7.67
2022-11-15T18:05:01.908Z,17.60
2022-11-15T18:07:29.866Z,9.00
2022-11-15T18:09:59.165Z,11.00
2022-11-15T18:12:27.121Z,7.37
2022-11-15T18:14:55.008Z,10.33
2022-11-15T18:17:23.762Z,8.63
2022-11-15T18:19:51.704Z,7.83
2022-11-15T18:22:20.430Z,8.73
2022-11-15T18:24:48.352Z,7.40
2022-11-15T18:27:17.537Z,9.40
2022-11-15T18:29:45.428Z,7.50
2022-11-15T18:32:15.130Z,8.67
2022-11-15T18:34:43.158Z,9.43
2022-11-15T18:37:11.035Z,8.80
2022-11-15T18:39:38.870Z,9.00
2022-11-15T18:42:06.868Z,12.90
2022-11-15T18:44:36.465Z,8.23
2022-11-15T18:47:04.547Z,5.50
2022-11-15T18:49:32.503Z,8.33
2022-11-15T18:52:00.415Z,7.20
2022-11-15T18:54:31.384Z,8.13
2022-11-15T18:57:00.005Z,9.60
2022-11-15T18:59:29.924Z,6.27
2022-11-15T19:01:59.984Z,10.33
2022-11-15T19:04:28.137Z,6.07
2022-11-15T19:06:56.111Z,13.10
2022-11-15T19:09:27.158Z,9.40
2022-11-15T19:11:55.039Z,7.87
2022-11-15T19:14:25.192Z,6.53
2022-11-15T19:16:54.564Z,10.93
2022-11-15T19:19:25.522Z,10.73
2022-11-15T19:21:53.842Z,7.43
2022-11-15T19:24:21.842Z,9.20
2022-11-15T19:26:49.751Z,7.50
2022-11-15T19:29:18.224Z,8.43
2022-11-15T19:31:48.446Z,5.53
2022-11-15T19:34:16.489Z,6.83
2022-11-15T19:36:46.272Z,8.13
2022-11-15T19:39:17.883Z,9.70
2022-11-15T19:41:46.447Z,12.20
2022-11-15T19:44:15.327Z,8.60
2022-11-15T19:46:44.222Z,9.00
2022-11-15T19:49:12.281Z,11.87
2022-11-15T19:51:42.464Z,9.17
2022-11-15T19:54:11.960Z,11.37
2022-11-15T19:56:40.642Z,8.67
2022-11-15T19:59:08.893Z,6.37
2022-11-15T20:01:38.668Z,10.70
2022-11-15T20:04:08.176Z,11.70
2022-11-15T20:06:39.217Z,9.03
2022-11-15T20:09:07.112Z,11.63
2022-11-15T20:11:37.959Z,10.97
2022-11-15T20:14:08.801Z,10.87
2022-11-15T20:16:36.700Z,8.67
2022-11-15T20:19:05.183Z,10.03
2022-11-15T20:21:33.064Z,10.57
2022-11-15T20:24:01.092Z,10.10
2022-11-15T20:26:30.284Z,11.63
2022-11-15T20:29:01.974Z,9.33
2022-11-15T20:31:30.663Z,9.77
2022-11-15T20:33:58.863Z,9.93
2022-11-15T20:36:27.064Z,8.97
2022-11-15T20:38:58.032Z,10.90
2022-11-15T20:41:26.087Z,9.20
2022-11-15T20:43:53.964Z,9.07
2022-11-15T20:46:23.396Z,8.60
2022-11-15T20:48:51.380Z,7.13
2022-11-15T20:51:19.867Z,8.70
2022-11-15T20:53:48.951Z,8.40
2022-11-15T20:56:20.214Z,8.80
2022-11-15T20:58:50.086Z,8.07
2022-11-15T21:01:23.047Z,8.03
2022-11-15T21:03:53.761Z,5.40
2022-11-15T21:06:22.354Z,6.87
2022-11-15T21:09:08.370Z,5.90
2022-11-15T21:11:53.789Z,6.50
2022-11-15T21:14:21.996Z,7.73
2022-11-15T21:16:50.121Z,5.60
2022-11-15T21:19:24.124Z,7.43
2022-11-15T21:21:55.978Z,5.87
2022-11-15T21:24:24.667Z,6.77
2022-11-15T21:26:53.443Z,8.93
2022-11-15T21:29:21.572Z,8.73
2022-11-15T21:31:50.965Z,6.90
2022-11-15T21:34:21.123Z,8.80
2022-11-15T21:36:49.125Z,6.17
2022-11-15T21:39:17.006Z,7.30
2022-11-15T21:41:44.872Z,7.20
2022-11-15T21:44:12.767Z,7.03
2022-11-15T21:46:40.588Z,7.00
2022-11-15T21:49:08.657Z,5.90
2022-11-15T21:51:38.326Z,5.17
2022-11-15T21:54:06.270Z,7.57
2022-11-15T21:56:34.790Z,5.30
2022-11-15T21:59:02.907Z,7.77
2022-11-15T22:01:48.152Z,7.00
2022-11-15T22:04:16.271Z,6.37
2022-11-15T22:06:45.469Z,6.13
2022-11-15T22:09:13.300Z,6.60
2022-11-15T22:11:41.139Z,6.57
2022-11-15T22:14:09.224Z,6.03
2022-11-15T22:16:37.603Z,5.93
2022-11-15T22:19:05.624Z,6.80
2022-11-15T22:21:33.717Z,6.33
2022-11-15T22:24:03.202Z,6.97
2022-11-15T22:26:31.214Z,8.47
2022-11-15T22:28:59.222Z,7.27
2022-11-15T22:31:27.306Z,7.47
2022-11-15T22:33:55.289Z,6.63
2022-11-15T22:36:26.037Z,7.87
2022-11-15T22:38:56.566Z,6.23
2022-11-15T22:41:25.956Z,9.30
2022-11-15T22:43:54.531Z,5.50
2022-11-15T22:46:22.656Z,5.67
2022-11-15T22:48:50.744Z,5.83
2022-11-15T22:51:18.763Z,5.00
2022-11-15T22:53:46.756Z,5.27
2022-11-15T22:56:20.065Z,6.27
2022-11-15T22:58:49.798Z,5.80
2022-11-15T23:01:22.735Z,6.50
2022-11-15T23:03:50.782Z,8.77
2022-11-15T23:06:18.912Z,6.63
2022-11-15T23:08:46.969Z,6.13
2022-11-15T23:11:32.508Z,7.10
2022-11-15T23:14:01.879Z,5.97
2022-11-15T23:16:35.355Z,7.10
2022-11-15T23:19:06.097Z,5.27
2022-11-15T23:21:53.451Z,5.93
2022-11-15T23:24:22.381Z,7.70
2022-11-15T23:26:51.848Z,5.73
2022-11-15T23:29:24.770Z,3.83
2022-11-15T23:32:10.320Z,5.23
2022-11-15T23:34:41.461Z,9.53
2022-11-15T23:37:10.969Z,7.00
2022-11-15T23:39:39.152Z,6.63
2022-11-15T23:42:09.313Z,5.23
2022-11-15T23:44:38.983Z,5.30
2022-11-15T23:47:07.061Z,6.37
2022-11-15T23:49:35.104Z,5.53
2022-11-15T23:52:03.095Z,7.00
2022-11-15T23:54:31.687Z,5.27
2022-11-15T23:56:59.861Z,7.30
2022-11-15T23:59:27.902Z,5.60
